createdAt,value
2022-09-06T00:00:26.560Z,53.61
2022-09-06T00:04:28.029Z,54.17
2022-09-06T00:08:29.513Z,53.59
2022-09-06T00:12:31.411Z,53.65
2022-09-06T00:16:32.868Z,53.94
2022-09-06T00:20:35.036Z,53.21
2022-09-06T00:24:37.239Z,53.35
2022-09-06T00:28:39.528Z,53.42
2022-09-06T00:32:41.240Z,52.71
2022-09-06T00:36:42.671Z,53.36
2022-09-06T00:40:44.193Z,53.54
2022-09-06T00:44:45.824Z,52.58
2022-09-06T00:48:50.158Z,52.58
2022-09-06T00:52:52.653Z,53.03
2022-09-06T00:56:55.230Z,53.04
2022-09-06T01:00:56.953Z,52.64
2022-09-06T01:04:58.694Z,52.41
2022-09-06T01:09:12.527Z,52.61
2022-09-06T01:13:38.585Z,52.66
2022-09-06T01:18:03.000Z,52.70
2022-09-06T01:22:48.516Z,52.36
2022-09-06T01:27:08.195Z,52.74
2022-09-06T01:31:35.551Z,53.39
2022-09-06T01:35:48.103Z,53.63
2022-09-06T01:39:49.594Z,54.09
2022-09-06T01:43:53.355Z,54.77
2022-09-06T01:48:17.001Z,54.73
2022-09-06T01:52:23.265Z,54.63
2022-09-06T01:56:47.695Z,55.06
2022-09-06T02:01:06.143Z,54.96
2022-09-06T02:05:27.554Z,54.89
2022-09-06T02:09:36.128Z,55.03
2022-09-06T02:13:51.238Z,55.12
2022-09-06T02:18:16.720Z,56.26
2022-09-06T02:22:22.833Z,55.75
2022-09-06T02:26:27.553Z,55.76
2022-09-06T02:30:29.107Z,55.79
2022-09-06T02:34:30.788Z,55.92
2022-09-06T02:38:36.980Z,56.25
2022-09-06T02:42:42.051Z,56.16
2022-09-06T02:46:43.446Z,56.04
2022-09-06T02:50:44.864Z,56.11
2022-09-06T02:54:46.350Z,56.21
2022-09-06T02:58:47.739Z,56.06
2022-09-06T03:02:49.207Z,56.21
2022-09-06T03:06:50.652Z,56.49
2022-09-06T03:10:56.130Z,56.56
2022-09-06T03:14:57.828Z,56.56
2022-09-06T03:18:59.236Z,56.78
2022-09-06T03:23:00.667Z,57.13
2022-09-06T03:27:02.084Z,57.86
2022-09-06T03:31:04.104Z,57.78
2022-09-06T03:35:05.937Z,58.07
2022-09-06T03:39:07.403Z,58.22
2022-09-06T03:43:08.796Z,58.87
2022-09-06T03:47:10.317Z,59.62
2022-09-06T03:51:11.764Z,59.61
2022-09-06T03:55:13.167Z,60.17
2022-09-06T03:59:14.638Z,61.12
2022-09-06T04:03:16.202Z,61.45
2022-09-06T04:07:17.608Z,61.84
2022-09-06T04:11:19.068Z,61.67
2022-09-06T04:15:20.526Z,62.66
2022-09-06T04:19:22.098Z,62.58
2022-09-06T04:23:25.053Z,63.27
2022-09-06T04:27:26.449Z,63.53
2022-09-06T04:31:27.951Z,63.63
2022-09-06T04:35:29.448Z,63.71
2022-09-06T04:39:30.923Z,63.85
2022-09-06T04:43:32.961Z,64.18
2022-09-06T04:47:34.456Z,64.15
2022-09-06T04:51:37.290Z,64.21
2022-09-06T04:55:39.018Z,64.76
2022-09-06T04:59:40.431Z,64.83
2022-09-06T05:03:42.423Z,65.27
2022-09-06T05:07:43.888Z,64.19
2022-09-06T05:11:46.231Z,65.11
2022-09-06T05:15:47.683Z,64.52
2022-09-06T05:19:49.159Z,65.32
2022-09-06T05:23:51.936Z,65.38
2022-09-06T05:27:55.802Z,65.76
2022-09-06T05:31:57.525Z,65.78
2022-09-06T05:35:59.082Z,66.08
2022-09-06T05:40:01.770Z,65.61
2022-09-06T05:44:03.761Z,65.80
2022-09-06T05:48:05.240Z,65.71
2022-09-06T05:52:06.665Z,64.80
2022-09-06T05:56:08.896Z,64.84
2022-09-06T06:00:12.228Z,65.20
2022-09-06T06:04:13.700Z,65.39
2022-09-06T06:08:15.119Z,65.18
2022-09-06T06:12:16.554Z,63.96
2022-09-06T06:16:20.379Z,64.42
2022-09-06T06:20:21.830Z,63.94
2022-09-06T06:24:23.343Z,65.59
2022-09-06T06:28:24.810Z,63.56
2022-09-06T06:32:26.432Z,63.73
2022-09-06T06:36:30.688Z,62.96
2022-09-06T06:40:32.127Z,63.82
2022-09-06T06:44:33.566Z,63.76
2022-09-06T06:48:36.395Z,61.93
2022-09-06T06:52:37.781Z,63.39
2022-09-06T06:56:44.772Z,62.26
2022-09-06T07:00:46.443Z,62.48
2022-09-06T07:04:47.917Z,62.00
2022-09-06T07:08:49.832Z,60.88
2022-09-06T07:12:51.820Z,60.27
2022-09-06T07:16:58.178Z,60.39
2022-09-06T07:25:21.626Z,60.49
2022-09-06T07:29:23.200Z,60.28
2022-09-06T07:33:24.941Z,61.00
2022-09-06T07:37:26.328Z,60.41
2022-09-06T07:41:27.775Z,60.87
2022-09-06T07:45:29.189Z,60.67
2022-09-06T07:49:34.700Z,60.20
2022-09-06T07:53:37.950Z,59.76
2022-09-06T07:57:39.629Z,58.89
2022-09-06T08:01:41.494Z,57.66
2022-09-06T08:10:04.712Z,59.84
2022-09-06T08:14:08.089Z,58.01
2022-09-06T08:18:09.513Z,58.43
2022-09-06T08:22:10.926Z,58.48
2022-09-06T08:26:12.821Z,60.07
2022-09-06T08:30:14.344Z,60.65
2022-09-06T08:34:16.012Z,59.23
2022-09-06T08:38:17.434Z,59.57
2022-09-06T08:42:18.940Z,58.13
2022-09-06T08:46:23.627Z,58.67
2022-09-06T08:50:28.729Z,58.78
2022-09-06T08:54:52.018Z,57.82
2022-09-06T08:59:06.478Z,56.21
2022-09-06T09:03:17.006Z,56.91
2022-09-06T09:07:21.312Z,57.24
2022-09-06T09:11:25.515Z,58.67
2022-09-06T09:15:28.775Z,59.65
2022-09-06T09:19:33.453Z,58.74
2022-09-06T09:23:35.480Z,58.15
2022-09-06T09:27:37.444Z,57.34
2022-09-06T09:31:49.797Z,55.78
2022-09-06T09:35:53.354Z,56.59
2022-09-06T09:39:57.859Z,56.90
2022-09-06T09:44:04.843Z,57.40
2022-09-06T09:48:20.527Z,57.50
2022-09-06T09:52:25.027Z,58.93
2022-09-06T09:56:32.714Z,59.12
2022-09-06T10:00:34.090Z,58.80
2022-09-06T10:04:44.568Z,58.85
2022-09-06T10:08:46.735Z,58.37
2022-09-06T10:12:48.337Z,57.91
2022-09-06T10:16:51.657Z,58.05
2022-09-06T10:21:00.795Z,59.20
2022-09-06T10:25:14.539Z,58.55
2022-09-06T10:29:29.656Z,56.87
2022-09-06T10:33:48.142Z,57.74
2022-09-06T10:38:15.365Z,57.64
2022-09-06T10:42:28.442Z,57.26
2022-09-06T10:46:34.772Z,55.26
2022-09-06T10:51:11.489Z,54.36
2022-09-06T10:55:17.937Z,54.59
2022-09-06T11:04:01.964Z,54.66
2022-09-06T11:12:43.963Z,50.36
2022-09-06T11:16:59.011Z,51.81
2022-09-06T11:21:24.768Z,52.04
2022-09-06T11:25:50.552Z,52.35
2022-09-06T11:29:56.446Z,52.91
2022-09-06T11:34:06.291Z,53.27
2022-09-06T11:38:24.648Z,53.71
2022-09-06T11:42:44.922Z,54.11
2022-09-06T11:46:46.426Z,53.74
2022-09-06T11:51:11.148Z,54.96
2022-09-06T11:55:16.100Z,53.71
2022-09-06T11:59:19.410Z,53.23
2022-09-06T12:04:05.565Z,53.30
2022-09-06T12:08:11.055Z,52.19
2022-09-06T12:12:52.389Z,52.76
2022-09-06T12:17:00.326Z,52.90
2022-09-06T12:25:20.454Z,53.71
2022-09-06T12:29:27.203Z,52.90
2022-09-06T12:33:36.217Z,53.17
2022-09-06T12:37:50.457Z,52.77
2022-09-06T12:41:59.702Z,51.09
2022-09-06T12:46:01.581Z,51.10
2022-09-06T12:50:17.860Z,49.57
2022-09-06T12:54:26.664Z,48.96
2022-09-06T12:58:28.932Z,48.49
2022-09-06T13:02:41.253Z,49.48
2022-09-06T13:06:46.690Z,50.09
2022-09-06T13:10:48.296Z,50.35
2022-09-06T13:14:56.599Z,50.51
2022-09-06T13:19:29.723Z,49.77
2022-09-06T13:23:45.095Z,47.92
2022-09-06T13:27:51.640Z,46.06
2022-09-06T13:31:55.531Z,44.60
2022-09-06T13:36:06.293Z,42.76
2022-09-06T13:41:09.284Z,43.24
2022-09-06T13:45:25.957Z,43.58
2022-09-06T13:49:28.435Z,43.40
2022-09-06T13:53:30.342Z,44.27
2022-09-06T13:57:31.793Z,45.07
2022-09-06T14:01:34.123Z,46.09
2022-09-06T14:05:38.958Z,46.45
2022-09-06T14:09:40.400Z,47.98
2022-09-06T14:13:41.901Z,47.21
2022-09-06T14:17:43.431Z,48.10
2022-09-06T14:21:44.869Z,47.57
2022-09-06T14:25:46.777Z,49.45
2022-09-06T14:29:49.256Z,49.53
2022-09-06T14:33:50.731Z,48.35
2022-09-06T14:37:52.327Z,47.93
2022-09-06T14:41:53.997Z,46.05
2022-09-06T14:45:58.921Z,44.93
2022-09-06T14:50:00.742Z,42.85
2022-09-06T14:54:07.554Z,42.44
2022-09-06T14:58:09.239Z,43.69
2022-09-06T15:02:10.882Z,42.56
2022-09-06T15:06:12.922Z,44.55
2022-09-06T15:10:14.498Z,45.74
2022-09-06T15:14:22.565Z,47.07
2022-09-06T15:18:24.110Z,47.34
2022-09-06T15:22:25.682Z,47.87
2022-09-06T15:26:29.319Z,47.79
2022-09-06T15:30:30.859Z,49.88
2022-09-06T15:34:32.406Z,49.24
2022-09-06T15:38:41.257Z,50.09
2022-09-06T15:42:42.858Z,50.21
2022-09-06T15:46:58.210Z,50.89
2022-09-06T15:51:02.605Z,51.95
2022-09-06T15:55:22.729Z,52.96
2022-09-06T15:59:24.601Z,52.02
2022-09-06T16:03:26.086Z,52.32
2022-09-06T16:07:27.759Z,52.85
2022-09-06T16:11:30.178Z,53.29
2022-09-06T16:15:31.911Z,53.70
2022-09-06T16:19:33.436Z,53.96
2022-09-06T16:23:36.372Z,53.85
2022-09-06T16:27:38.011Z,54.38
2022-09-06T16:31:40.734Z,54.74
2022-09-06T16:35:43.162Z,54.70
2022-09-06T16:39:44.820Z,55.71
2022-09-06T16:43:47.859Z,55.55
2022-09-06T16:47:49.353Z,54.93
2022-09-06T16:51:51.057Z,55.45
2022-09-06T16:55:52.722Z,54.94
2022-09-06T16:59:54.465Z,55.58
2022-09-06T17:03:56.297Z,55.48
2022-09-06T17:07:57.753Z,56.05
2022-09-06T17:11:59.485Z,56.42
2022-09-06T17:16:22.278Z,55.86
2022-09-06T17:20:23.962Z,55.41
2022-09-06T17:24:26.873Z,56.12
2022-09-06T17:28:28.639Z,56.56
2022-09-06T17:32:31.753Z,56.62
2022-09-06T17:36:34.176Z,56.46
2022-09-06T17:40:35.895Z,56.98
2022-09-06T17:44:37.636Z,57.16
2022-09-06T17:48:39.092Z,55.50
2022-09-06T17:52:40.587Z,55.23
2022-09-06T17:56:42.117Z,54.94
2022-09-06T18:00:43.592Z,54.39
2022-09-06T18:04:45.158Z,54.33
2022-09-06T18:08:47.909Z,54.68
2022-09-06T18:12:50.266Z,54.81
2022-09-06T18:16:52.231Z,53.88
2022-09-06T18:20:53.762Z,53.81
2022-09-06T18:24:58.333Z,52.79
2022-09-06T18:29:00.203Z,52.63
2022-09-06T18:33:01.700Z,52.65
2022-09-06T18:37:03.194Z,52.67
2022-09-06T18:41:07.744Z,52.43
2022-09-06T18:45:09.290Z,53.49
2022-09-06T18:49:13.456Z,53.51
2022-09-06T18:53:18.122Z,54.50
2022-09-06T18:57:19.586Z,54.65
2022-09-06T19:01:21.831Z,55.00
2022-09-06T19:05:23.576Z,54.78
2022-09-06T19:09:25.067Z,53.40
2022-09-06T19:13:26.592Z,53.35
2022-09-06T19:17:28.062Z,53.12
2022-09-06T19:21:29.726Z,53.77
2022-09-06T19:25:31.179Z,54.03
2022-09-06T19:29:32.681Z,53.99
2022-09-06T19:33:36.335Z,53.10
2022-09-06T19:37:38.879Z,53.95
2022-09-06T19:41:46.580Z,53.84
2022-09-06T19:45:48.029Z,54.12
2022-09-06T19:49:49.510Z,54.23
2022-09-06T19:53:57.634Z,54.12
2022-09-06T19:58:00.512Z,53.74
2022-09-06T20:02:02.777Z,53.23
2022-09-06T20:06:07.449Z,53.76
2022-09-06T20:10:09.410Z,54.32
2022-09-06T20:14:11.470Z,55.43
2022-09-06T20:18:13.237Z,54.71
2022-09-06T20:22:14.729Z,54.96
2022-09-06T20:26:17.970Z,54.43
2022-09-06T20:30:19.773Z,54.26
2022-09-06T20:34:21.322Z,54.80
2022-09-06T20:38:23.056Z,54.51
2022-09-06T20:42:24.570Z,55.38
2022-09-06T20:46:30.934Z,56.51
2022-09-06T20:50:32.477Z,56.79
2022-09-06T20:54:34.029Z,56.85
2022-09-06T20:58:37.817Z,57.32
2022-09-06T21:02:39.340Z,57.63
2022-09-06T21:06:41.132Z,58.03
2022-09-06T21:10:42.998Z,58.87
2022-09-06T21:14:44.485Z,59.49
2022-09-06T21:18:50.634Z,59.39
2022-09-06T21:22:52.172Z,61.62
2022-09-06T21:26:53.627Z,60.03
2022-09-06T21:31:10.082Z,61.21
2022-09-06T21:35:11.592Z,60.75
2022-09-06T21:39:13.228Z,60.61
2022-09-06T21:43:14.685Z,61.30
2022-09-06T21:47:16.152Z,59.94
2022-09-06T21:51:20.390Z,60.83
2022-09-06T21:55:21.870Z,60.84
2022-09-06T21:59:23.359Z,60.10
2022-09-06T22:03:26.154Z,60.16
2022-09-06T22:07:27.594Z,59.48
2022-09-06T22:11:31.888Z,60.68
2022-09-06T22:15:37.632Z,59.34
2022-09-06T22:19:39.189Z,60.16
2022-09-06T22:23:40.776Z,60.08
2022-09-06T22:27:42.279Z,59.81
2022-09-06T22:31:43.931Z,59.37
2022-09-06T22:35:45.444Z,59.40
2022-09-06T22:39:48.050Z,59.76
2022-09-06T22:43:49.600Z,59.36
2022-09-06T22:47:51.083Z,59.70
2022-09-06T22:51:53.635Z,58.95
2022-09-06T22:55:55.875Z,60.09
2022-09-06T22:59:57.421Z,58.99
2022-09-06T23:03:59.401Z,58.99
2022-09-06T23:08:02.562Z,58.58
2022-09-06T23:12:05.127Z,59.19
2022-09-06T23:16:08.978Z,59.73
2022-09-06T23:20:10.545Z,59.95
2022-09-06T23:24:12.148Z,58.87
2022-09-06T23:28:13.648Z,59.44
2022-09-06T23:32:15.129Z,58.92
2022-09-06T23:36:16.607Z,59.02
2022-09-06T23:40:18.970Z,58.80
2022-09-06T23:44:20.814Z,58.78
2022-09-06T23:48:22.336Z,57.90
2022-09-06T23:52:23.864Z,58.91
2022-09-06T23:56:25.342Z,58.99
